Los Lunas ASC Data

Date Time Air Temperature Relative Humidity Dewpoint Windchill Heat Index Wind Speed Wind Dir. Rain Solar Radiation Soil Temperature
2m 2m 3m 3m 10cm
US/Mountain F % F F F MPH deg in MJ/m^2 F
max avg avg
2021-10-14 00:05:00 40.9 52.4 24.8 40.9 40.9 0.0 1.3 0.3 140.4 117.8 0.00 0.0000000 61.0
2021-10-14 00:10:00 41.2 50.5 24.2 41.2 41.2 0.0 1.5 0.6 179.4 133.8 0.00 0.0000000 60.9
2021-10-14 00:15:00 41.5 51.5 24.9 41.5 41.5 0.0 1.0 0.2 283.0 268.5 0.00 0.0000000 60.8
2021-10-14 00:20:00 41.0 50.5 24.0 41.0 41.0 2.6 2.6 0.7 22.2 35.1 0.00 0.0000000 60.7
2021-10-14 00:25:00 41.3 51.3 24.7 41.3 41.3 2.4 3.3 2.6 46.2 22.2 0.00 0.0000000 60.7
2021-10-14 00:30:00 41.3 48.8 23.5 41.3 41.3 2.4 3.5 2.3 44.6 15.5 0.00 0.0000000 60.6
2021-10-14 00:35:00 41.2 50.0 24.0 41.2 41.2 0.0 3.0 1.7 54.1 35.5 0.00 0.0000000 60.5
2021-10-14 00:40:00 40.4 50.7 23.6 40.4 40.4 0.0 1.5 0.4 216.9 40.6 0.00 0.0000000 60.4
2021-10-14 00:45:00 40.0 54.4 24.9 40.0 40.0 0.0 1.7 0.7 145.2 146.5 0.00 0.0000000 60.3
2021-10-14 00:50:00 39.9 54.8 24.9 39.9 39.9 0.0 1.5 0.9 37.2 7.5 0.00 0.0000000 60.2
2021-10-14 00:55:00 39.8 53.5 24.3 39.8 39.8 0.0 1.7 0.7 265.1 16.0 0.00 0.0000000 60.2
2021-10-14 01:00:00 40.6 51.8 24.2 40.6 40.6 2.6 3.0 2.0 39.9 43.5 0.00 0.0000000 60.1
2021-10-14 01:05:00 41.0 52.9 25.1 41.0 41.0 1.9 2.8 1.7 179.1 76.3 0.00 0.0000000 60.0
2021-10-14 01:10:00 40.2 54.8 25.2 40.2 40.2 1.7 2.4 1.9 193.8 176.6 0.00 0.0000000 59.9
2021-10-14 01:15:00 40.1 54.6 25.0 40.1 40.1 1.3 2.4 1.4 209.5 209.7 0.00 0.0000000 59.8
2021-10-14 01:20:00 39.9 55.1 25.1 39.9 39.9 0.0 1.5 0.4 320.4 215.1 0.00 0.0000000 59.8
2021-10-14 01:25:00 39.5 55.9 25.0 39.5 39.5 2.1 2.1 1.1 235.3 256.7 0.00 0.0000000 59.7
2021-10-14 01:30:00 39.0 56.8 25.0 39.0 39.0 1.0 2.4 1.2 241.0 248.1 0.00 0.0000000 59.6
2021-10-14 01:35:00 38.8 58.2 25.3 38.8 38.8 0.0 1.2 0.2 238.7 249.9 0.00 0.0000000 59.5
2021-10-14 01:40:00 38.5 57.8 24.9 38.5 38.5 1.3 1.5 0.7 243.2 268.8 0.00 0.0000000 59.4
2021-10-14 01:45:00 37.9 60.0 25.3 37.9 37.9 0.8 1.7 1.4 214.4 190.1 0.00 0.0000000 59.4
2021-10-14 01:50:00 37.7 60.1 25.1 37.7 37.7 0.0 1.2 0.4 0.1 256.8 0.00 0.0000000 59.3
2021-10-14 01:55:00 37.6 61.3 25.4 37.6 37.6 0.0 0.0 0.0 123.6 0.0 0.00 0.0000000 59.2
2021-10-14 02:00:00 36.5 62.6 25.0 36.5 36.5 0.8 1.3 0.4 178.0 144.6 0.00 0.0000000 59.1
2021-10-14 02:05:00 36.1 63.7 25.0 36.1 36.1 0.0 0.8 0.1 110.3 155.2 0.00 0.0000000 59.0
2021-10-14 02:10:00 35.7 65.7 25.4 35.7 35.7 0.0 1.9 0.4 222.1 224.7 0.00 0.0000000 59.0
2021-10-14 02:15:00 35.9 65.3 25.3 35.9 35.9 1.3 1.7 0.7 218.5 258.8 0.00 0.0000000 58.9
2021-10-14 02:20:00 35.9 64.8 25.2 35.9 35.9 1.7 1.7 0.6 242.7 235.5 0.00 0.0000000 58.8
2021-10-14 02:25:00 36.1 64.6 25.3 36.1 36.1 0.0 2.1 1.2 297.0 252.9 0.00 0.0000000 58.7
2021-10-14 02:30:00 35.6 64.8 24.9 35.6 35.6 0.0 1.9 0.6 242.4 276.9 0.00 0.0000000 58.6
2021-10-14 02:35:00 35.4 64.9 24.8 35.4 35.4 0.0 1.7 0.6 262.8 256.8 0.00 0.0000000 58.6
2021-10-14 02:40:00 35.1 66.5 25.1 35.1 35.1 0.0 1.3 0.2 63.8 141.2 0.00 0.0000000 58.5
2021-10-14 02:45:00 34.6 69.1 25.5 34.6 34.6 0.0 1.7 0.2 72.9 72.3 0.00 0.0000000 58.4
2021-10-14 02:50:00 34.3 71.1 25.9 34.3 34.3 0.0 0.0 0.0 93.8 0.0 0.00 0.0000000 58.3
2021-10-14 02:55:00 33.9 71.2 25.6 33.9 33.9 0.0 0.0 0.0 86.8 0.0 0.00 0.0000000 58.3
2021-10-14 03:00:00 33.6 70.8 25.1 33.6 33.6 0.0 0.0 0.0 163.5 0.0 0.00 0.0000000 58.2
2021-10-14 03:05:00 33.5 72.8 25.7 33.5 33.5 1.5 1.9 1.1 250.7 244.7 0.00 0.0000000 58.1
2021-10-14 03:10:00 33.4 72.6 25.6 33.4 33.4 1.9 1.9 0.8 238.8 246.1 0.00 0.0000000 58.0
2021-10-14 03:15:00 33.6 71.6 25.4 33.6 33.6 1.5 2.1 1.5 227.2 245.9 0.00 0.0000000 58.0
2021-10-14 03:20:00 33.5 73.4 25.9 33.5 33.5 0.0 1.5 0.5 224.1 227.8 0.00 0.0000000 57.9
2021-10-14 03:25:00 33.1 73.4 25.5 33.1 33.1 0.0 0.0 0.0 270.4 0.0 0.00 0.0000000 57.8
2021-10-14 03:30:00 33.1 73.6 25.6 33.1 33.1 0.0 0.0 0.0 225.9 0.0 0.00 0.0000000 57.7
2021-10-14 03:35:00 32.8 74.2 25.5 32.8 32.8 0.0 0.0 0.0 246.7 0.0 0.00 0.0000000 57.7
2021-10-14 03:40:00 32.8 74.2 25.5 32.8 32.8 0.0 0.0 0.0 228.6 0.0 0.00 0.0000000 57.6
2021-10-14 03:45:00 32.7 74.6 25.5 32.7 32.7 0.0 0.0 0.0 227.4 0.0 0.00 0.0000000 57.5
2021-10-14 03:50:00 32.3 74.9 25.3 32.3 32.3 0.0 0.0 0.0 218.0 0.0 0.00 0.0000000 57.4
2021-10-14 03:55:00 32.1 74.7 25.0 32.1 32.1 0.0 0.0 0.0 134.9 0.0 0.00 0.0000000 57.3
2021-10-14 04:00:00 31.9 74.1 24.6 31.9 31.9 0.0 0.0 0.0 130.9 0.0 0.00 0.0000000 57.3
2021-10-14 04:05:00 31.5 75.4 24.6 31.5 31.5 0.0 0.0 0.0 194.9 0.0 0.00 0.0000000 57.2
2021-10-14 04:10:00 31.5 76.7 25.0 31.5 31.5 0.0 0.0 0.0 172.3 0.0 0.00 0.0000000 57.1
2021-10-14 04:15:00 31.4 78.3 25.4 31.4 31.4 0.0 0.0 0.0 211.7 0.0 0.00 0.0000000 57.1
2021-10-14 04:20:00 31.5 79.2 25.8 31.5 31.5 0.0 0.0 0.0 224.9 0.0 0.00 0.0000000 57.0
2021-10-14 04:25:00 31.8 77.2 25.4 31.8 31.8 1.3 1.9 1.0 282.2 275.7 0.00 0.0000000 56.9
2021-10-14 04:30:00 31.5 75.7 24.7 31.5 31.5 0.0 1.7 0.9 237.0 282.2 0.00 0.0000000 56.8
2021-10-14 04:35:00 31.5 75.4 24.7 31.5 31.5 1.0 1.2 0.4 239.8 240.3 0.00 0.0000000 56.8
2021-10-14 04:40:00 31.7 74.8 24.6 31.7 31.7 1.5 1.5 1.0 290.7 274.4 0.00 0.0000000 56.7
2021-10-14 04:45:00 31.3 74.8 24.2 31.3 31.3 0.0 1.2 0.4 297.3 296.8 0.00 0.0000000 56.6
2021-10-14 04:50:00 31.0 75.3 24.1 31.0 31.0 1.0 1.0 0.0 239.6 239.6 0.00 0.0000000 56.6
2021-10-14 04:55:00 30.9 75.3 24.0 30.9 30.9 0.0 1.2 0.3 241.8 238.0 0.00 0.0000000 56.5
2021-10-14 05:00:00 30.9 75.6 24.1 30.9 30.9 0.0 0.0 0.0 241.8 0.0 0.00 0.0000000 56.4
2021-10-14 05:05:00 31.0 75.6 24.2 31.0 31.0 0.8 1.9 0.5 262.8 266.9 0.00 0.0000000 56.4
2021-10-14 05:10:00 30.8 74.8 23.7 30.8 30.8 0.0 1.0 0.1 270.9 273.4 0.00 0.0000000 56.3
2021-10-14 05:15:00 30.8 75.1 23.8 30.8 30.8 0.0 1.0 0.1 248.9 247.0 0.00 0.0000000 56.2
2021-10-14 05:20:00 30.6 74.8 23.6 30.6 30.6 0.0 0.8 0.1 221.4 271.1 0.00 0.0000000 56.1
2021-10-14 05:25:00 30.9 73.8 23.5 30.9 30.9 0.0 0.0 0.0 254.0 0.0 0.00 0.0000000 56.1
2021-10-14 05:30:00 30.8 73.4 23.3 30.8 30.8 0.0 0.0 0.0 250.8 0.0 0.00 0.0000000 56.0
2021-10-14 05:35:00 30.6 73.7 23.2 30.6 30.6 0.0 0.0 0.0 261.1 0.0 0.00 0.0000000 55.9
2021-10-14 05:40:00 30.7 73.7 23.3 30.7 30.7 0.0 0.0 0.0 252.2 0.0 0.00 0.0000000 55.9
2021-10-14 05:45:00 30.8 73.8 23.4 30.8 30.8 0.0 1.0 0.2 242.0 242.3 0.00 0.0000000 55.8
2021-10-14 05:50:00 30.7 74.2 23.5 30.7 30.7 0.0 0.0 0.0 260.3 0.0 0.00 0.0000000 55.7
2021-10-14 05:55:00 30.8 74.3 23.6 30.8 30.8 1.2 1.3 0.3 243.0 237.3 0.00 0.0000000 55.7
2021-10-14 06:00:00 30.6 75.6 23.8 30.6 30.6 0.0 1.2 0.3 230.1 239.5 0.00 0.0000000 55.6
2021-10-14 06:05:00 30.3 76.5 23.8 30.3 30.3 0.0 0.0 0.0 206.7 0.0 0.00 0.0000000 55.5
2021-10-14 06:10:00 30.1 76.8 23.8 30.1 30.1 0.0 1.3 0.3 208.5 206.1 0.00 0.0000000 55.5
2021-10-14 06:15:00 30.3 77.0 23.9 30.3 30.3 0.0 0.0 0.0 207.7 0.0 0.00 0.0000000 55.4
2021-10-14 06:20:00 29.7 76.7 23.3 29.7 29.7 0.0 0.0 0.0 224.9 0.0 0.00 0.0000000 55.3
2021-10-14 06:25:00 29.7 78.0 23.7 29.7 29.7 0.0 0.0 0.0 192.8 0.0 0.00 0.0000000 55.3
2021-10-14 06:30:00 29.7 77.8 23.6 29.7 29.7 0.0 0.8 0.1 205.3 207.0 0.00 0.0000000 55.2
2021-10-14 06:35:00 29.4 77.9 23.4 29.4 29.4 0.0 0.0 0.0 170.4 0.0 0.00 0.0000000 55.1
2021-10-14 06:40:00 29.2 77.6 23.0 29.2 29.2 0.0 1.3 0.5 116.8 171.6 0.00 0.0000000 55.1
2021-10-14 06:45:00 29.0 77.6 22.9 29.0 29.0 0.0 0.0 0.0 173.4 0.0 0.00 0.0000000 55.0
2021-10-14 06:50:00 28.9 78.3 22.9 28.9 28.9 0.0 0.0 0.0 184.8 0.0 0.00 0.0000000 54.9
2021-10-14 06:55:00 28.8 78.7 23.0 28.8 28.8 0.0 0.0 0.0 184.8 0.0 0.00 0.0000000 54.9
2021-10-14 07:00:00 28.7 80.2 23.3 28.7 28.7 0.0 0.0 0.0 184.8 0.0 0.00 0.0010000 54.8
2021-10-14 07:05:00 28.6 80.6 23.4 28.6 28.6 0.0 0.0 0.0 224.8 0.0 0.00 0.0020000 54.8
2021-10-14 07:10:00 28.7 79.9 23.3 28.7 28.7 0.0 0.0 0.0 263.4 0.0 0.00 0.0030000 54.7
2021-10-14 07:15:00 28.7 78.9 23.0 28.7 28.7 0.0 0.0 0.0 263.4 0.0 0.00 0.0050000 54.6
2021-10-14 07:20:00 28.5 79.8 23.0 28.5 28.5 0.0 0.0 0.0 164.5 0.0 0.00 0.0070000 54.6
2021-10-14 07:25:00 28.4 81.2 23.4 28.4 28.4 0.0 0.0 0.0 164.5 0.0 0.00 0.0090000 54.5
2021-10-14 07:30:00 28.7 82.0 23.9 28.7 28.7 0.0 0.0 0.0 123.3 0.0 0.00 0.0120000 54.4
2021-10-14 07:35:00 28.6 81.5 23.7 28.6 28.6 0.0 0.0 0.0 84.3 0.0 0.00 0.0140000 54.4
2021-10-14 07:40:00 28.8 81.0 23.7 28.8 28.8 0.0 0.0 0.0 346.2 0.0 0.00 0.0230000 54.3
2021-10-14 07:45:00 29.1 80.4 23.8 29.1 29.1 0.0 0.0 0.0 57.6 0.0 0.00 0.0250000 54.3
2021-10-14 07:50:00 29.4 79.7 23.8 29.4 29.4 0.0 0.0 0.0 42.6 0.0 0.00 0.0210000 54.2
2021-10-14 07:55:00 30.1 80.4 24.8 30.1 30.1 0.0 0.0 0.0 233.2 0.0 0.00 0.0350000 54.1
2021-10-14 08:00:00 30.6 78.4 24.7 30.6 30.6 0.0 0.0 0.0 233.2 0.0 0.00 0.0630000 54.1
2021-10-14 08:05:00 31.2 77.0 24.8 31.2 31.2 0.0 0.0 0.0 34.6 0.0 0.00 0.0420000 54.1
2021-10-14 08:10:00 31.6 75.0 24.5 31.6 31.6 0.0 1.2 0.3 47.0 42.3 0.00 0.0400000 54.0
2021-10-14 08:15:00 32.1 74.0 24.7 32.1 32.1 0.0 0.0 0.0 48.3 0.0 0.00 0.0490000 53.9
2021-10-14 08:20:00 33.2 73.8 25.7 33.2 33.2 1.5 1.9 1.5 41.1 38.3 0.00 0.0360000 53.9
2021-10-14 08:25:00 34.2 70.7 25.7 34.2 34.2 0.0 1.9 0.8 47.9 28.9 0.00 0.1820000 53.9
2021-10-14 08:30:00 35.0 69.2 25.9 35.0 35.0 0.0 0.0 0.0 55.2 0.0 0.00 0.1980000 53.8
2021-10-14 08:35:00 35.9 66.8 26.0 35.9 35.9 0.0 0.0 0.0 197.5 0.0 0.00 0.2130000 53.8
2021-10-14 08:40:00 37.3 62.5 25.7 37.3 37.3 0.0 1.7 0.6 205.9 197.0 0.00 0.2290000 53.7
2021-10-14 08:45:00 39.0 58.4 25.7 39.0 39.0 0.0 1.3 0.2 157.2 187.5 0.00 0.2440000 53.7
2021-10-14 08:50:00 40.5 54.6 25.4 40.5 40.5 1.0 1.0 0.1 226.5 226.5 0.00 0.2600000 53.7
2021-10-14 08:55:00 41.8 53.0 25.9 41.8 41.8 1.0 2.6 1.6 187.2 205.3 0.00 0.2740000 53.7
2021-10-14 09:00:00 42.6 50.4 25.5 42.6 42.6 1.7 2.1 1.2 172.3 173.8 0.00 0.2890000 53.6
2021-10-14 09:05:00 43.0 51.4 26.3 43.0 43.0 1.7 1.9 1.4 221.3 213.4 0.00 0.3040000 53.6
2021-10-14 09:10:00 44.4 48.8 26.3 44.4 44.4 1.9 2.2 0.9 88.9 65.7 0.00 0.3180000 53.6
2021-10-14 09:15:00 45.2 47.6 26.5 45.2 45.2 2.2 2.8 1.4 47.3 97.9 0.00 0.3340000 53.6
2021-10-14 09:20:00 46.4 46.6 27.0 46.4 46.4 1.0 2.2 1.0 291.9 121.8 0.00 0.3470000 53.6
2021-10-14 09:25:00 46.4 47.7 27.7 46.4 46.4 1.3 3.0 1.4 112.6 29.6 0.00 0.3630000 53.6
2021-10-14 09:30:00 46.4 48.2 27.9 46.4 46.4 1.2 2.8 1.6 38.7 49.8 0.00 0.3750000 53.6
2021-10-14 09:35:00 47.1 47.7 28.3 47.1 47.1 1.3 2.8 1.5 10.5 1.8 0.00 0.3900000 53.6
2021-10-14 09:40:00 48.8 44.9 28.4 48.8 48.8 2.6 2.6 0.8 157.7 226.9 0.00 0.4050000 53.6
2021-10-14 09:45:00 49.5 41.6 27.1 49.5 49.5 1.9 2.4 1.5 254.4 82.5 0.00 0.4180000 53.6
2021-10-14 09:50:00 50.6 40.5 27.4 50.6 50.6 1.0 2.4 1.5 106.1 79.8 0.00 0.4310000 53.7
2021-10-14 09:55:00 50.6 41.0 27.8 50.6 50.6 2.8 3.3 1.8 230.6 308.6 0.00 0.4430000 53.7
2021-10-14 10:00:00 50.5 40.2 27.2 50.5 50.5 1.7 3.8 2.4 14.6 210.6 0.00 0.4570000 53.8
2021-10-14 10:05:00 51.8 38.2 27.1 51.8 51.8 1.2 3.5 2.2 128.4 164.6 0.00 0.4690000 53.9
2021-10-14 10:10:00 52.4 35.4 25.8 52.4 52.4 3.0 4.6 2.6 70.4 133.4 0.00 0.4810000 54.0
2021-10-14 10:15:00 52.1 38.5 27.6 52.1 52.1 1.2 3.7 2.5 224.1 215.8 0.00 0.4910000 54.1
2021-10-14 10:20:00 52.1 33.8 24.4 52.1 52.1 1.0 5.8 2.6 304.7 242.2 0.00 0.5040000 54.2
2021-10-14 10:25:00 53.6 34.5 26.3 53.6 53.6 1.5 3.3 2.0 177.4 182.7 0.00 0.5130000 54.4
2021-10-14 10:30:00 53.9 32.5 25.1 53.9 53.9 2.8 3.5 2.6 174.1 176.0 0.00 0.5230000 54.5
2021-10-14 10:35:00 54.4 32.1 25.2 54.4 54.4 1.2 3.0 1.7 37.9 137.5 0.00 0.5350000 54.6
2021-10-14 10:40:00 55.7 31.5 25.9 55.7 55.7 2.2 4.4 2.1 211.2 141.7 0.00 0.5460000 54.8
2021-10-14 10:45:00 56.1 31.0 25.8 56.1 56.1 2.4 3.7 2.1 290.2 223.8 0.00 0.5550000 54.9
2021-10-14 10:50:00 56.9 31.7 27.1 56.9 56.9 3.1 3.5 2.0 153.1 222.3 0.00 0.5670000 55.1
2021-10-14 10:55:00 56.8 30.6 26.1 56.8 56.8 1.0 3.7 2.4 56.0 178.7 0.00 0.5750000 55.3
2021-10-14 11:00:00 56.7 28.9 24.7 56.7 56.7 2.2 4.6 2.8 278.5 164.0 0.00 0.5830000 55.5
2021-10-14 11:05:00 58.0 28.9 25.8 58.0 58.0 2.4 4.2 2.1 201.2 166.0 0.00 0.5900000 55.7
2021-10-14 11:10:00 58.4 28.0 25.3 58.4 58.4 2.1 3.7 1.9 175.6 208.0 0.00 0.6030000 55.9
2021-10-14 11:15:00 58.2 28.3 25.4 58.2 58.2 1.7 4.6 2.9 124.8 196.4 0.00 0.6080000 56.2
2021-10-14 11:20:00 58.2 28.9 26.0 58.2 58.2 4.2 6.0 3.2 235.9 245.8 0.00 0.6150000 56.4
2021-10-14 11:25:00 59.4 27.2 25.6 59.4 59.4 1.7 4.2 1.8 157.5 153.7 0.00 0.6230000 56.6
2021-10-14 11:30:00 59.5 29.2 27.4 59.5 59.5 1.3 5.3 2.5 233.7 239.5 0.00 0.6290000 56.9
2021-10-14 11:35:00 59.9 26.8 25.6 59.9 59.9 4.0 7.1 3.2 237.1 208.3 0.00 0.6350000 57.1
2021-10-14 11:40:00 59.7 27.9 26.4 59.7 59.7 2.8 7.6 4.3 219.9 230.6 0.00 0.6420000 57.4
2021-10-14 11:45:00 60.9 26.3 26.0 60.9 60.9 2.1 5.5 3.1 208.5 198.2 0.00 0.6460000 57.6
2021-10-14 11:50:00 61.9 24.9 25.5 61.9 61.9 5.1 8.8 4.1 220.8 272.9 0.00 0.6520000 57.9
2021-10-14 11:55:00 61.0 24.1 24.1 61.0 61.0 8.3 10.3 6.2 247.2 238.2 0.00 0.6570000 58.2
2021-10-14 12:00:00 60.8 24.7 24.4 60.8 60.8 3.1 8.5 4.1 282.2 237.3 0.00 0.6600000 58.5
2021-10-14 12:05:00 62.0 23.0 23.7 62.0 62.0 8.1 8.1 4.2 223.9 315.0 0.00 0.6660000 58.7
2021-10-14 12:10:00 61.4 23.6 23.8 61.4 61.4 8.7 11.0 4.9 279.3 262.2 0.00 0.6680000 59.0
2021-10-14 12:15:00 61.4 23.4 23.6 61.4 61.4 8.5 8.5 5.5 253.8 241.6 0.00 0.6730000 59.3
2021-10-14 12:20:00 61.7 22.7 23.2 61.7 61.7 2.1 9.7 4.6 81.9 218.6 0.00 0.6740000 59.5
2021-10-14 12:25:00 62.3 23.3 24.3 62.3 62.3 2.2 7.8 3.7 272.2 225.2 0.00 0.6780000 59.8
2021-10-14 12:30:00 62.0 23.5 24.3 62.0 62.0 4.4 10.1 5.2 251.7 229.9 0.00 0.6800000 60.1
2021-10-14 12:35:00 61.9 22.7 23.4 61.9 61.9 2.4 8.1 4.2 325.4 267.2 0.00 0.6810000 60.4
2021-10-14 12:40:00 62.5 23.2 24.4 62.5 62.5 3.3 6.2 3.3 211.3 268.2 0.00 0.6820000 60.6
2021-10-14 12:45:00 62.8 23.2 24.6 62.8 62.8 1.5 6.9 3.3 228.9 277.7 0.00 0.6860000 60.9
2021-10-14 12:50:00 63.5 22.7 24.7 63.5 63.5 5.3 5.6 3.8 184.6 228.3 0.00 0.6850000 61.2
2021-10-14 12:55:00 63.7 21.6 23.7 63.7 63.7 5.1 7.8 4.6 171.1 208.0 0.00 0.6840000 61.4
2021-10-14 13:00:00 63.7 22.3 24.4 63.7 63.7 6.3 6.3 3.6 177.1 167.7 0.00 0.6830000 61.7
2021-10-14 13:05:00 65.1 21.0 24.1 65.1 65.1 2.4 4.7 2.3 209.9 154.4 0.00 0.6850000 62.0
2021-10-14 13:10:00 65.7 21.5 25.3 65.7 65.7 2.6 4.4 2.3 179.7 88.7 0.00 0.6830000 62.3
2021-10-14 13:15:00 65.1 21.5 24.7 65.1 65.1 4.7 5.1 3.2 249.9 214.1 0.00 0.6840000 62.5
2021-10-14 13:20:00 64.4 21.9 24.5 64.4 64.4 4.0 6.3 3.5 248.9 221.3 0.00 0.6810000 62.8
2021-10-14 13:25:00 65.1 24.3 27.6 65.1 65.1 1.7 4.7 2.8 237.5 198.5 0.00 0.6790000 63.1
2021-10-14 13:30:00 65.8 20.8 24.5 65.8 65.8 5.6 7.4 4.5 232.7 270.8 0.00 0.6770000 63.3
2021-10-14 13:35:00 64.7 20.4 23.1 64.7 64.7 4.4 13.5 7.9 271.1 241.9 0.00 0.6730000 63.6
2021-10-14 13:40:00 65.1 20.0 23.0 65.1 65.1 6.3 10.5 6.0 264.2 256.1 0.00 0.6670000 63.8
2021-10-14 13:45:00 64.8 20.4 23.3 64.8 64.8 7.1 10.5 7.4 260.9 245.3 0.00 0.6640000 64.1
2021-10-14 13:50:00 65.3 20.4 23.6 65.3 65.3 3.0 9.2 5.4 305.5 258.2 0.00 0.6660000 64.3
2021-10-14 13:55:00 66.1 21.2 25.3 66.1 66.1 2.6 6.9 3.3 218.9 275.4 0.00 0.6560000 64.6
2021-10-14 14:00:00 66.1 19.3 23.0 66.1 66.1 6.9 8.8 4.5 209.3 263.8 0.00 0.6560000 64.8
2021-10-14 14:05:00 65.9 18.3 21.5 65.9 65.9 8.3 8.7 5.5 261.9 266.0 0.00 0.6450000 65.0
2021-10-14 14:10:00 65.8 19.3 22.7 65.8 65.8 6.2 12.8 6.9 171.1 255.0 0.00 0.6400000 65.2
2021-10-14 14:15:00 66.3 18.8 22.5 66.3 66.3 6.2 11.0 6.1 250.2 281.1 0.00 0.6430000 65.5
2021-10-14 14:20:00 66.8 18.5 22.5 66.8 66.8 3.8 13.5 6.0 309.3 265.1 0.00 0.6280000 65.7
2021-10-14 14:25:00 66.5 20.3 24.6 66.5 66.5 2.1 9.0 4.0 341.0 282.1 0.00 0.6210000 65.9
2021-10-14 14:30:00 67.3 17.9 22.2 67.3 67.3 4.9 7.1 3.9 320.6 323.4 0.00 0.6160000 66.1
2021-10-14 14:35:00 67.3 17.6 21.7 67.3 67.3 3.8 9.9 5.5 296.7 281.7 0.00 0.6090000 66.3
2021-10-14 14:40:00 67.3 16.9 20.8 67.3 67.3 8.0 11.9 7.1 294.5 260.4 0.00 0.6010000 66.5
2021-10-14 14:45:00 67.2 16.3 19.9 67.2 67.2 6.9 11.5 7.5 289.4 259.7 0.00 0.5920000 66.7
2021-10-14 14:50:00 67.4 16.5 20.4 67.4 67.4 7.6 13.0 7.6 256.2 289.2 0.00 0.5800000 66.8
2021-10-14 14:55:00 66.9 18.3 22.4 66.9 66.9 3.8 12.8 7.6 203.0 287.5 0.00 0.5710000 67.0
2021-10-14 15:00:00 67.1 17.5 21.5 67.1 67.1 4.7 11.9 6.8 287.8 253.1 0.00 0.5620000 67.2
2021-10-14 15:05:00 67.7 18.2 22.9 67.7 67.7 4.9 8.3 5.6 246.7 244.8 0.00 0.5520000 67.3
2021-10-14 15:10:00 68.1 18.0 23.0 68.1 68.1 6.9 12.2 5.8 278.7 272.4 0.00 0.5430000 67.5
2021-10-14 15:15:00 67.6 16.7 20.8 67.6 67.6 3.7 8.5 5.3 307.0 271.3 0.00 0.5330000 67.6
2021-10-14 15:20:00 68.1 17.1 21.7 68.1 68.1 9.9 12.2 5.3 233.8 293.1 0.00 0.5220000 67.8
2021-10-14 15:25:00 68.1 17.1 21.8 68.1 68.1 4.7 14.4 6.4 326.3 282.5 0.00 0.5100000 67.9
2021-10-14 15:30:00 67.2 17.2 21.2 67.2 67.2 5.3 9.9 6.1 247.0 254.6 0.00 0.4980000 68.1
2021-10-14 15:35:00 68.0 17.1 21.6 68.0 68.0 6.3 8.3 4.7 289.5 308.5 0.00 0.4870000 68.2
2021-10-14 15:40:00 67.9 17.7 22.4 67.9 67.9 3.1 9.9 6.1 190.6 294.5 0.00 0.4760000 68.3
2021-10-14 15:45:00 68.1 17.5 22.3 68.1 68.1 3.5 9.6 5.8 157.1 280.5 0.00 0.4630000 68.4
2021-10-14 15:50:00 68.1 16.3 20.6 68.1 68.1 9.6 10.1 6.1 268.7 287.3 0.00 0.4500000 68.5
2021-10-14 15:55:00 67.9 16.9 21.3 67.9 67.9 5.6 10.6 6.5 248.4 293.7 0.00 0.4360000 68.6
2021-10-14 16:00:00 68.2 17.4 22.3 68.2 68.2 4.9 9.2 6.2 236.6 281.3 0.00 0.4250000 68.7
2021-10-14 16:05:00 68.1 16.6 21.0 68.1 68.1 4.7 8.5 5.1 216.2 273.7 0.00 0.4120000 68.8
2021-10-14 16:10:00 68.0 16.7 21.2 68.0 68.0 9.4 9.4 4.8 199.2 264.1 0.00 0.3750000 68.9
2021-10-14 16:15:00 68.7 15.0 19.1 68.7 68.7 2.8 10.5 5.1 11.3 286.0 0.00 0.0340000 69.0
2021-10-14 16:20:00 68.5 16.2 20.8 68.5 68.5 3.0 6.3 3.5 228.5 265.4 0.00 0.2790000 69.0
2021-10-14 16:25:00 68.5 15.5 19.8 68.5 68.5 7.1 11.3 6.2 256.6 276.9 0.00 0.3550000 69.1
2021-10-14 16:30:00 67.9 16.8 21.1 67.9 67.9 7.6 10.1 5.6 253.1 292.3 0.00 0.3400000 69.2
2021-10-14 16:35:00 67.9 14.6 17.9 67.9 67.9 10.3 15.5 7.0 295.8 258.1 0.00 0.3260000 69.2
2021-10-14 16:40:00 67.8 14.9 18.2 67.8 67.8 6.5 13.9 6.7 292.2 285.1 0.00 0.3120000 69.2
2021-10-14 16:45:00 67.7 14.8 18.1 67.7 67.7 4.7 9.6 5.9 221.9 271.5 0.00 0.2970000 69.3
2021-10-14 16:50:00 67.8 15.7 19.4 67.8 67.8 5.3 10.6 5.9 248.0 282.2 0.00 0.2820000 69.3
2021-10-14 16:55:00 67.5 14.8 17.9 67.5 67.5 6.0 11.0 5.9 289.4 294.5 0.00 0.2660000 69.3
2021-10-14 17:00:00 67.2 15.3 18.5 67.2 67.2 5.5 14.0 7.3 257.5 290.3 0.00 0.2510000 69.3
2021-10-14 17:05:00 67.1 15.3 18.4 67.1 67.1 7.2 9.7 6.8 294.7 298.7 0.00 0.2360000 69.3
2021-10-14 17:10:00 67.0 15.7 18.8 67.0 67.0 4.2 9.2 5.8 275.7 301.6 0.00 0.2190000 69.3
2021-10-14 17:15:00 67.2 15.9 19.3 67.2 67.2 10.1 11.0 5.8 330.4 291.4 0.00 0.1950000 69.2
2021-10-14 17:20:00 66.3 16.5 19.4 66.3 66.3 3.5 11.7 6.8 254.4 275.9 0.00 0.0310000 69.2
2021-10-14 17:25:00 66.7 16.5 19.8 66.7 66.7 7.4 9.0 5.4 233.2 286.2 0.00 0.0390000 69.2
2021-10-14 17:30:00 66.7 16.6 19.9 66.7 66.7 2.8 10.8 5.8 297.1 274.1 0.00 0.0320000 69.1
2021-10-14 17:35:00 66.4 16.5 19.6 66.4 66.4 6.3 10.5 7.7 287.8 292.2 0.00 0.0240000 69.1
2021-10-14 17:40:00 66.1 15.9 18.3 66.1 66.1 7.2 9.4 6.6 340.8 285.2 0.00 0.0220000 69.0
2021-10-14 17:45:00 65.9 15.7 17.9 65.9 65.9 4.9 10.3 5.5 38.7 307.7 0.00 0.0210000 69.0
2021-10-14 17:50:00 65.4 15.4 17.2 65.4 65.4 7.6 11.5 7.0 310.1 297.1 0.00 0.0190000 68.9
2021-10-14 17:55:00 64.9 15.7 17.2 64.9 64.9 5.5 10.8 5.9 288.5 307.8 0.00 0.0180000 68.8
2021-10-14 18:00:00 64.6 15.8 17.0 64.6 64.6 6.9 8.7 4.8 313.3 299.4 0.00 0.0170000 68.7
2021-10-14 18:05:00 64.3 15.6 16.5 64.3 64.3 6.5 13.7 6.7 302.4 294.9 0.00 0.0150000 68.6
2021-10-14 18:10:00 64.0 15.9 16.7 64.0 64.0 2.8 9.2 5.1 1.0 273.8 0.00 0.0140000 68.5
2021-10-14 18:15:00 63.8 15.9 16.6 63.8 63.8 3.8 9.7 4.9 161.2 291.9 0.00 0.0120000 68.4
2021-10-14 18:20:00 63.5 16.0 16.4 63.5 63.5 2.8 8.3 4.8 300.7 308.8 0.00 0.0090000 68.3
2021-10-14 18:25:00 63.2 16.1 16.3 63.2 63.2 6.2 10.5 5.4 281.6 309.2 0.00 0.0070000 68.2
2021-10-14 18:30:00 62.9 16.4 16.6 62.9 62.9 5.5 9.6 4.7 244.4 287.4 0.00 0.0050000 68.1
2021-10-14 18:35:00 62.5 16.5 16.3 62.5 62.5 6.5 11.7 5.8 309.1 291.3 0.00 0.0030000 68.0
2021-10-14 18:40:00 62.2 16.8 16.5 62.2 62.2 3.7 8.8 5.1 276.5 299.0 0.00 0.0020000 67.9
2021-10-14 18:45:00 61.7 17.1 16.6 61.7 61.7 2.6 8.1 4.0 265.8 272.0 0.00 0.0010000 67.8
2021-10-14 18:50:00 61.3 17.3 16.5 61.3 61.3 5.6 8.5 4.8 285.6 295.9 0.00 0.0000000 67.7
2021-10-14 18:55:00 61.4 17.0 16.1 61.4 61.4 8.7 9.2 6.5 298.1 283.0 0.00 0.0000000 67.6
2021-10-14 19:00:00 61.1 17.3 16.3 61.1 61.1 7.4 10.5 6.5 293.0 286.5 0.00 0.0000000 67.5
2021-10-14 19:05:00 60.9 17.1 15.8 60.9 60.9 3.3 8.3 5.4 290.1 287.5 0.00 0.0000000 67.4
2021-10-14 19:10:00 60.5 17.4 16.0 60.5 60.5 4.2 9.2 4.7 247.0 293.4 0.00 0.0000000 67.2
2021-10-14 19:15:00 60.2 17.7 16.1 60.2 60.2 7.1 7.2 4.7 299.6 287.6 0.00 0.0000000 67.1
2021-10-14 19:20:00 59.8 18.0 16.3 59.8 59.8 4.7 6.7 4.1 298.3 265.7 0.00 0.0000000 67.0
2021-10-14 19:25:00 59.6 18.1 16.1 59.6 59.6 4.0 7.8 4.6 259.1 276.3 0.00 0.0000000 66.9
2021-10-14 19:30:00 59.4 18.4 16.3 59.4 59.4 4.6 8.1 4.2 289.7 278.3 0.00 0.0000000 66.8
2021-10-14 19:35:00 58.8 18.5 16.0 58.8 58.8 6.9 7.4 4.6 266.4 299.7 0.00 0.0000000 66.7
2021-10-14 19:40:00 58.9 18.8 16.4 58.9 58.9 3.7 6.2 3.8 296.1 287.1 0.00 0.0000000 66.5
2021-10-14 19:45:00 58.9 18.9 16.5 58.9 58.9 2.1 6.3 3.8 15.0 291.1 0.00 0.0000000 66.4
2021-10-14 19:50:00 59.1 19.4 17.3 59.1 59.1 5.3 8.1 4.3 250.7 278.7 0.00 0.0000000 66.3
2021-10-14 19:55:00 58.7 19.5 17.2 58.7 58.7 4.9 8.1 4.7 295.4 273.0 0.00 0.0000000 66.2
2021-10-14 20:00:00 58.2 20.2 17.4 58.2 58.2 4.6 8.7 4.4 282.3 277.5 0.00 0.0000000 66.1
2021-10-14 20:05:00 57.8 20.6 17.6 57.8 57.8 4.4 4.9 3.3 270.1 265.7 0.00 0.0000000 66.0
2021-10-14 20:10:00 57.4 21.1 17.9 57.4 57.4 3.8 6.7 4.0 283.4 285.9 0.00 0.0000000 65.9
2021-10-14 20:15:00 56.9 21.8 18.2 56.9 56.9 1.9 5.5 3.2 312.2 274.8 0.00 0.0000000 65.8
2021-10-14 20:20:00 56.4 22.3 18.3 56.4 56.4 4.0 6.3 3.8 255.0 275.0 0.00 0.0000000 65.7
2021-10-14 20:25:00 55.9 22.5 18.0 55.9 55.9 3.5 5.6 3.3 299.7 271.8 0.00 0.0000000 65.6
2021-10-14 20:30:00 55.7 23.1 18.5 55.7 55.7 4.0 5.1 3.5 1.8 281.1 0.00 0.0000000 65.5
2021-10-14 20:35:00 55.8 23.5 19.0 55.8 55.8 3.7 5.6 3.4 342.5 278.0 0.00 0.0000000 65.3
2021-10-14 20:40:00 55.9 23.8 19.4 55.9 55.9 2.1 5.5 3.3 282.9 267.9 0.00 0.0000000 65.2
2021-10-14 20:45:00 55.8 23.9 19.4 55.8 55.8 4.6 7.6 4.1 304.8 279.9 0.00 0.0000000 65.1
2021-10-14 20:50:00 55.9 24.7 20.3 55.9 55.9 2.6 6.0 3.9 337.9 279.6 0.00 0.0000000 65.0
2021-10-14 20:55:00 55.6 24.8 20.1 55.6 55.6 4.9 5.3 3.2 293.5 274.8 0.00 0.0000000 64.9
2021-10-14 21:00:00 55.6 25.2 20.5 55.6 55.6 3.0 6.3 3.9 207.1 272.9 0.00 0.0000000 64.8
2021-10-14 21:05:00 55.1 25.3 20.1 55.1 55.1 4.9 5.1 3.4 264.6 276.0 0.00 0.0000000 64.7
2021-10-14 21:10:00 54.6 26.0 20.4 54.6 54.6 1.9 6.2 2.8 222.1 259.9 0.00 0.0000000 64.6
2021-10-14 21:15:00 54.3 26.2 20.3 54.3 54.3 4.4 4.6 2.3 255.0 258.4 0.00 0.0000000 64.5
2021-10-14 21:20:00 54.0 26.8 20.6 54.0 54.0 2.8 3.8 2.5 274.2 247.1 0.00 0.0000000 64.4
2021-10-14 21:25:00 54.0 27.3 21.0 54.0 54.0 2.1 4.9 2.8 217.9 258.1 0.00 0.0000000 64.3
2021-10-14 21:30:00 53.7 27.2 20.6 53.7 53.7 1.9 5.1 2.9 298.2 260.3 0.00 0.0000000 64.2
2021-10-14 21:35:00 54.5 25.8 20.1 54.5 54.5 1.9 7.2 3.9 48.5 279.0 0.00 0.0000000 64.1
2021-10-14 21:40:00 54.7 25.5 20.0 54.7 54.7 2.4 5.3 2.6 4.0 323.7 0.00 0.0000000 64.0
2021-10-14 21:45:00 55.0 25.1 19.9 55.0 55.0 1.9 5.3 3.0 316.6 358.2 0.00 0.0000000 64.0
2021-10-14 21:50:00 55.0 24.7 19.5 55.0 55.0 2.4 6.7 3.6 17.1 349.8 0.00 0.0000000 63.9
2021-10-14 21:55:00 54.5 25.2 19.5 54.5 54.5 3.3 6.0 3.9 25.5 13.7 0.00 0.0000000 63.7
2021-10-14 22:00:00 53.4 26.6 19.9 53.4 53.4 3.1 5.8 3.5 34.4 15.6 0.00 0.0000000 63.7
2021-10-14 22:05:00 52.4 28.7 20.8 52.4 52.4 3.1 4.4 3.4 27.4 28.4 0.00 0.0000000 63.6
2021-10-14 22:10:00 51.7 28.7 20.2 51.7 51.7 3.3 4.9 3.3 26.5 33.1 0.00 0.0000000 63.5
2021-10-14 22:15:00 50.9 29.8 20.4 50.9 50.9 3.7 4.4 3.5 47.2 26.3 0.00 0.0000000 63.4
2021-10-14 22:20:00 49.8 31.2 20.5 49.8 49.8 2.6 4.0 3.2 337.6 30.0 0.00 0.0000000 63.3
2021-10-14 22:25:00 49.8 30.9 20.2 49.3 49.8 3.1 3.7 2.8 25.9 17.4 0.00 0.0000000 63.2
2021-10-14 22:30:00 49.6 31.0 20.2 49.6 49.6 1.9 3.7 2.3 32.3 22.0 0.00 0.0000000 63.1
2021-10-14 22:35:00 49.3 30.9 19.9 49.3 49.3 2.4 4.2 2.4 17.1 4.1 0.00 0.0000000 63.0
2021-10-14 22:40:00 48.7 32.1 20.2 47.7 48.7 3.5 3.7 2.6 9.8 10.4 0.00 0.0000000 63.0
2021-10-14 22:45:00 48.7 32.0 20.1 47.3 48.7 4.0 4.6 3.4 30.7 4.6 0.00 0.0000000 62.9
2021-10-14 22:50:00 48.1 32.8 20.2 48.1 48.1 2.2 4.2 2.9 0.8 16.4 0.00 0.0000000 62.8
2021-10-14 22:55:00 48.4 32.9 20.5 48.4 48.4 3.0 4.6 3.2 32.9 16.0 0.00 0.0000000 62.7
2021-10-14 23:00:00 48.0 33.1 20.3 48.0 48.0 1.2 3.5 2.5 16.0 15.1 0.00 0.0000000 62.6
2021-10-14 23:05:00 47.9 33.0 20.1 46.4 47.9 4.0 4.6 2.4 23.4 10.3 0.00 0.0000000 62.5
2021-10-14 23:10:00 47.9 33.0 20.2 46.0 47.9 4.6 5.5 4.3 39.8 12.3 0.00 0.0000000 62.4
2021-10-14 23:15:00 47.4 33.7 20.2 47.4 47.4 3.0 4.7 3.3 0.7 8.9 0.00 0.0000000 62.3
2021-10-14 23:20:00 47.9 33.3 20.4 46.6 47.9 3.8 4.9 2.3 340.2 359.5 0.00 0.0000000 62.2
2021-10-14 23:25:00 48.5 32.6 20.4 46.4 48.5 5.1 5.1 2.8 325.1 22.0 0.00 0.0000000 62.2
2021-10-14 23:30:00 48.8 32.2 20.4 48.1 48.8 3.3 5.6 3.2 30.2 26.0 0.00 0.0000000 62.0
2021-10-14 23:35:00 48.8 31.9 20.2 47.2 48.8 4.4 6.0 4.0 40.7 21.6 0.00 0.0000000 62.0
2021-10-14 23:40:00 48.9 32.0 20.3 47.3 48.9 4.4 5.3 3.9 36.5 19.8 0.00 0.0000000 61.9
2021-10-14 23:45:00 48.8 31.8 20.1 47.5 48.8 4.0 6.2 4.2 256.5 19.9 0.00 0.0000000 61.8
2021-10-14 23:50:00 49.1 31.8 20.3 47.1 49.1 5.1 6.3 4.6 20.3 7.8 0.00 0.0000000 61.7
2021-10-14 23:55:00 49.4 32.1 20.8 48.1 49.4 4.0 6.2 4.3 19.1 19.5 0.00 0.0000000 61.6
2021-10-15 00:00:00 48.8 32.9 20.8 47.3 48.8 4.2 5.6 4.0 13.0 2.9 0.00 0.0000000 61.5

Data is courtesy of the NM Climate Center. DO NOT USE IN LEGAL PROCEEDINGS.